Belmont, New York
Current Conditions -  °F | °C
As of 6:56 AM on Monday 24 Nov 2014 (Local Time) from KELZ Reporting Station
Overcast Overcast  
Wind Chill: 56°   Ceiling: 2400
Heat Index: 56°   Visibility: 10mi
Dew Point: 49°   Wind: 17mph
Humidity: 77%   Direction: 200°SSW
Pressure: 29.44"   Gusts: 32mph
Location:  42.22°N, 78.03°W
Report Text: KELZ 241156Z AUTO 20015G28KT 10SM SCT018 BKN024 OVC032 13/09 A2944 RMK AO2 PK WND 19034/1138 RAE22B41E51 SLP967 P0000 60015 70018 T01330094 10133 20078 53003
Loading
Personal Weather Stations






























Interactive Weather Map New forecast layout! Learn more

10-Day Weather Forecast

Advertisements
Track Severe Weather on mobile